createdAt,value
2022-08-27T00:02:02.430Z,14.27
2022-08-27T00:04:30.484Z,13.97
2022-08-27T00:06:59.836Z,14.10
2022-08-27T00:09:28.017Z,13.70
2022-08-27T00:11:57.634Z,13.60
2022-08-27T00:14:27.145Z,14.73
2022-08-27T00:16:55.873Z,15.00
2022-08-27T00:19:24.159Z,14.37
2022-08-27T00:21:52.276Z,13.43
2022-08-27T00:24:20.352Z,14.13
2022-08-27T00:26:48.329Z,14.40
2022-08-27T00:29:17.741Z,13.57
2022-08-27T00:31:45.823Z,13.37
2022-08-27T00:34:20.155Z,14.07
2022-08-27T00:36:48.157Z,13.67
2022-08-27T00:39:16.249Z,13.40
2022-08-27T00:41:44.312Z,13.83
2022-08-27T00:44:12.774Z,14.77
2022-08-27T00:46:45.344Z,15.27
2022-08-27T00:49:19.265Z,15.00
2022-08-27T00:51:54.978Z,14.60
2022-08-27T00:54:23.403Z,15.20
2022-08-27T00:56:52.024Z,15.63
2022-08-27T00:59:23.228Z,15.97
2022-08-27T01:02:11.011Z,15.97
2022-08-27T01:04:40.152Z,15.50
2022-08-27T01:07:09.567Z,15.40
2022-08-27T01:09:38.715Z,13.53
2022-08-27T01:12:06.833Z,14.50
2022-08-27T01:14:35.413Z,13.73
2022-08-27T01:17:05.702Z,12.83
2022-08-27T01:19:36.672Z,14.00
2022-08-27T01:22:07.280Z,13.77
2022-08-27T01:24:40.024Z,13.10
2022-08-27T01:27:13.777Z,14.40
2022-08-27T01:29:42.525Z,14.07
2022-08-27T01:32:13.965Z,13.80
2022-08-27T01:34:42.228Z,14.77
2022-08-27T01:37:10.554Z,13.50
2022-08-27T01:39:40.727Z,13.60
2022-08-27T01:42:11.161Z,13.63
2022-08-27T01:44:48.636Z,13.67
2022-08-27T01:47:17.708Z,15.93
2022-08-27T01:49:45.825Z,13.90
2022-08-27T01:52:15.359Z,14.17
2022-08-27T01:54:44.928Z,12.90
2022-08-27T01:57:13.000Z,14.43
2022-08-27T01:59:41.280Z,12.60
2022-08-27T02:02:10.501Z,14.07
2022-08-27T02:04:38.881Z,14.20
2022-08-27T02:07:07.610Z,15.57
2022-08-27T02:09:35.927Z,13.30
2022-08-27T02:12:06.017Z,15.33
2022-08-27T02:14:34.004Z,14.50
2022-08-27T02:17:02.201Z,13.37
2022-08-27T02:19:30.160Z,12.90
2022-08-27T02:22:00.347Z,14.63
2022-08-27T02:24:29.046Z,14.30
2022-08-27T02:26:57.829Z,14.67
2022-08-27T02:29:27.212Z,15.33
2022-08-27T02:31:55.493Z,17.40
2022-08-27T02:34:23.612Z,17.97
2022-08-27T02:36:53.847Z,18.13
2022-08-27T02:39:22.406Z,18.20
2022-08-27T02:41:50.480Z,17.23
2022-08-27T02:44:18.477Z,16.83
2022-08-27T02:46:47.994Z,16.87
2022-08-27T02:49:19.937Z,16.43
2022-08-27T02:51:47.925Z,17.83
2022-08-27T02:54:17.803Z,15.33
2022-08-27T02:56:45.757Z,17.27
2022-08-27T02:59:15.043Z,17.10
2022-08-27T03:01:43.023Z,16.00
2022-08-27T03:04:12.867Z,16.00
2022-08-27T03:06:41.390Z,16.23
2022-08-27T03:09:10.299Z,14.87
2022-08-27T03:11:38.284Z,15.47
2022-08-27T03:14:06.396Z,15.93
2022-08-27T03:16:35.658Z,14.03
2022-08-27T03:19:03.165Z,15.20
2022-08-27T03:21:32.508Z,16.77
2022-08-27T03:24:11.322Z,15.03
2022-08-27T03:26:40.126Z,14.17
2022-08-27T03:29:09.371Z,14.30
2022-08-27T03:31:37.867Z,14.50
2022-08-27T03:34:09.472Z,14.57
2022-08-27T03:36:38.831Z,13.40
2022-08-27T03:39:06.815Z,13.23
2022-08-27T03:41:47.246Z,13.93
2022-08-27T03:44:22.982Z,13.23
2022-08-27T03:46:51.634Z,13.70
2022-08-27T03:49:21.261Z,12.60
2022-08-27T03:51:51.387Z,11.73
2022-08-27T03:54:20.003Z,10.80
2022-08-27T03:56:47.989Z,12.43
2022-08-27T03:59:16.563Z,13.60
2022-08-27T04:01:44.804Z,14.50
2022-08-27T04:04:14.069Z,15.00
2022-08-27T04:06:42.472Z,16.77
2022-08-27T04:09:12.420Z,15.17
2022-08-27T04:11:40.585Z,14.03
2022-08-27T04:14:20.814Z,12.20
2022-08-27T04:16:56.426Z,12.70
2022-08-27T04:19:27.745Z,13.07
2022-08-27T04:22:00.993Z,11.50
2022-08-27T04:24:31.399Z,11.10
2022-08-27T04:26:59.776Z,10.50
2022-08-27T04:29:27.824Z,10.87
2022-08-27T04:31:56.153Z,10.80
2022-08-27T04:34:24.292Z,11.30
2022-08-27T04:36:53.203Z,11.37
2022-08-27T04:39:21.212Z,10.83
2022-08-27T04:41:51.647Z,10.30
2022-08-27T04:44:19.799Z,10.43
2022-08-27T04:46:49.344Z,9.30
2022-08-27T04:49:18.192Z,10.70
2022-08-27T04:51:47.696Z,8.30
2022-08-27T04:54:16.445Z,8.73
2022-08-27T04:56:45.552Z,9.40
2022-08-27T04:59:15.864Z,8.77
2022-08-27T05:01:43.978Z,8.83
2022-08-27T05:04:14.420Z,10.67
2022-08-27T05:06:44.413Z,10.30
2022-08-27T05:09:12.932Z,10.73
2022-08-27T05:11:41.910Z,11.00
2022-08-27T05:14:13.432Z,10.57
2022-08-27T05:16:43.475Z,10.40
2022-08-27T05:19:14.702Z,9.63
2022-08-27T05:21:47.001Z,10.13
2022-08-27T05:24:14.981Z,9.23
2022-08-27T05:26:43.011Z,10.00
2022-08-27T05:29:11.123Z,8.37
2022-08-27T05:31:40.604Z,9.63
2022-08-27T05:34:13.957Z,9.73
2022-08-27T05:36:49.072Z,10.90
2022-08-27T05:39:18.233Z,9.00
2022-08-27T05:41:46.221Z,10.33
2022-08-27T05:47:03.788Z,11.00
2022-08-27T05:49:33.143Z,12.87
2022-08-27T05:52:01.109Z,13.53
2022-08-27T05:54:29.057Z,12.10
2022-08-27T05:56:56.948Z,13.40
2022-08-27T05:59:42.368Z,13.20
2022-08-27T06:02:11.071Z,12.13
2022-08-27T06:04:40.492Z,11.03
2022-08-27T06:07:10.992Z,13.80
2022-08-27T06:09:39.477Z,14.90
2022-08-27T06:12:08.511Z,12.10
2022-08-27T06:14:36.763Z,11.20
2022-08-27T06:17:05.088Z,11.40
2022-08-27T06:19:34.780Z,11.10
2022-08-27T06:22:10.368Z,10.80
2022-08-27T06:24:40.121Z,11.73
2022-08-27T06:27:10.984Z,10.90
2022-08-27T06:29:39.537Z,10.73
2022-08-27T06:32:07.900Z,10.10
2022-08-27T06:34:36.202Z,9.30
2022-08-27T06:37:05.665Z,8.17
2022-08-27T06:39:33.689Z,9.37
2022-08-27T06:42:01.628Z,9.70
2022-08-27T06:44:29.911Z,9.43
2022-08-27T06:46:57.854Z,10.13
2022-08-27T06:49:25.767Z,10.37
2022-08-27T06:51:53.848Z,11.30
2022-08-27T06:54:23.193Z,10.70
2022-08-27T06:56:51.196Z,10.60
2022-08-27T06:59:20.788Z,9.73
2022-08-27T07:01:51.358Z,10.80
2022-08-27T07:04:21.400Z,11.27
2022-08-27T07:06:50.055Z,10.20
2022-08-27T07:09:20.599Z,10.77
2022-08-27T07:11:49.954Z,11.20
2022-08-27T07:14:18.069Z,10.20
2022-08-27T07:16:46.072Z,10.80
2022-08-27T07:19:16.199Z,10.50
2022-08-27T07:21:45.704Z,10.73
2022-08-27T07:24:13.700Z,10.80
2022-08-27T07:26:43.986Z,10.07
2022-08-27T07:29:15.354Z,10.40
2022-08-27T07:31:43.870Z,11.03
2022-08-27T07:34:11.847Z,10.83
2022-08-27T07:36:41.092Z,11.13
2022-08-27T07:39:09.486Z,13.27
2022-08-27T07:41:58.403Z,11.93
2022-08-27T07:44:28.004Z,13.87
2022-08-27T07:46:58.678Z,15.13
2022-08-27T07:49:29.021Z,14.40
2022-08-27T07:51:57.098Z,16.17
2022-08-27T07:54:25.349Z,17.57
2022-08-27T07:56:55.252Z,17.40
2022-08-27T07:59:24.740Z,16.80
2022-08-27T08:01:55.092Z,18.13
2022-08-27T08:04:23.739Z,17.70
2022-08-27T08:06:52.377Z,18.47
2022-08-27T08:09:22.133Z,18.53
2022-08-27T08:11:50.183Z,15.97
2022-08-27T08:14:18.237Z,14.83
2022-08-27T08:16:46.524Z,15.10
2022-08-27T08:19:16.073Z,15.90
2022-08-27T08:21:44.088Z,15.37
2022-08-27T08:24:12.313Z,14.70
2022-08-27T08:26:42.043Z,14.33
2022-08-27T08:29:13.308Z,15.07
2022-08-27T08:31:49.999Z,16.00
2022-08-27T08:34:20.709Z,13.80
2022-08-27T08:36:54.045Z,13.67
2022-08-27T08:39:23.577Z,13.40
2022-08-27T08:41:54.065Z,13.50
2022-08-27T08:44:31.890Z,13.00
2022-08-27T08:47:04.481Z,12.07
2022-08-27T08:49:40.033Z,11.10
2022-08-27T08:52:26.126Z,10.37
2022-08-27T08:55:05.309Z,10.07
2022-08-27T08:57:37.730Z,10.70
2022-08-27T09:00:10.740Z,10.70
2022-08-27T09:02:39.051Z,12.57
2022-08-27T09:05:09.756Z,10.77
2022-08-27T09:07:44.911Z,10.43
2022-08-27T09:10:21.070Z,8.83
2022-08-27T09:12:49.113Z,9.40
2022-08-27T09:15:20.097Z,9.70
2022-08-27T09:17:48.920Z,9.90
2022-08-27T09:20:20.157Z,10.00
2022-08-27T09:22:51.837Z,8.80
2022-08-27T09:25:21.936Z,9.10
2022-08-27T09:27:56.573Z,10.40
2022-08-27T09:30:30.575Z,9.97
2022-08-27T09:33:01.320Z,10.30
2022-08-27T09:35:37.794Z,9.47
2022-08-27T09:38:05.851Z,10.70
2022-08-27T09:40:40.039Z,10.70
2022-08-27T09:43:09.850Z,10.90
2022-08-27T09:45:37.850Z,10.60
2022-08-27T09:48:08.290Z,10.43
2022-08-27T09:50:43.585Z,10.50
2022-08-27T09:53:19.877Z,10.90
2022-08-27T09:55:50.513Z,11.00
2022-08-27T09:58:21.531Z,10.00
2022-08-27T10:00:50.346Z,10.20
2022-08-27T10:03:22.510Z,10.20
2022-08-27T10:05:54.467Z,9.40
2022-08-27T10:08:25.752Z,9.07
2022-08-27T10:10:56.578Z,9.43
2022-08-27T10:13:28.899Z,9.43
2022-08-27T10:16:07.553Z,9.00
2022-08-27T10:18:41.521Z,9.47
2022-08-27T10:21:17.100Z,9.27
2022-08-27T10:23:52.686Z,8.60
2022-08-27T10:26:27.981Z,8.73
2022-08-27T10:29:09.291Z,9.50
2022-08-27T10:31:41.191Z,8.20
2022-08-27T10:34:17.744Z,8.80
2022-08-27T10:36:57.832Z,7.40
2022-08-27T10:39:41.239Z,8.17
2022-08-27T10:42:14.922Z,7.33
2022-08-27T10:44:50.965Z,6.70
2022-08-27T10:47:31.393Z,7.10
2022-08-27T10:50:05.302Z,6.43
2022-08-27T10:52:38.550Z,6.90
2022-08-27T10:55:14.817Z,6.50
2022-08-27T10:58:05.579Z,6.77
2022-08-27T11:00:41.685Z,7.30
2022-08-27T11:03:14.030Z,6.47
2022-08-27T11:05:46.543Z,5.83
2022-08-27T11:08:20.774Z,6.10
2022-08-27T11:10:51.450Z,7.43
2022-08-27T11:13:23.763Z,6.10
2022-08-27T11:15:53.294Z,6.77
2022-08-27T11:18:26.145Z,6.40
2022-08-27T11:20:59.817Z,6.50
2022-08-27T11:23:33.814Z,6.80
2022-08-27T11:26:05.188Z,6.50
2022-08-27T11:28:37.623Z,7.30
2022-08-27T11:31:11.427Z,6.30
2022-08-27T11:33:46.249Z,6.47
2022-08-27T11:36:45.270Z,8.00
2022-08-27T11:39:30.383Z,6.70
2022-08-27T11:42:11.095Z,6.67
2022-08-27T11:44:43.066Z,6.10
2022-08-27T11:47:13.947Z,7.47
2022-08-27T11:49:47.727Z,6.23
2022-08-27T11:52:23.751Z,6.80
2022-08-27T11:54:56.728Z,6.40
2022-08-27T11:57:30.502Z,6.70
2022-08-27T11:59:59.208Z,6.50
2022-08-27T12:02:29.505Z,6.80
2022-08-27T12:05:09.181Z,6.70
2022-08-27T12:07:39.792Z,6.40
2022-08-27T12:10:33.319Z,5.80
2022-08-27T12:13:14.343Z,6.20
2022-08-27T12:15:56.002Z,6.37
2022-08-27T12:18:41.525Z,6.10
2022-08-27T12:21:17.080Z,6.27
2022-08-27T12:23:51.039Z,6.50
2022-08-27T12:26:31.168Z,6.70
2022-08-27T12:29:34.391Z,6.30
2022-08-27T12:32:17.936Z,6.17
2022-08-27T12:34:49.909Z,6.60
2022-08-27T12:37:23.496Z,5.57
2022-08-27T12:39:52.652Z,6.20
2022-08-27T12:42:22.842Z,5.40
2022-08-27T12:44:55.581Z,6.23
2022-08-27T12:47:23.632Z,5.77
2022-08-27T12:49:56.367Z,6.13
2022-08-27T12:52:52.539Z,5.27
2022-08-27T12:55:27.942Z,5.70
2022-08-27T12:58:05.962Z,6.10
2022-08-27T13:00:38.909Z,6.20
2022-08-27T13:03:22.260Z,5.50
2022-08-27T13:05:51.405Z,5.70
2022-08-27T13:08:21.611Z,5.93
2022-08-27T13:10:50.638Z,5.90
2022-08-27T13:13:21.639Z,5.77
2022-08-27T13:15:52.664Z,4.80
2022-08-27T13:18:21.635Z,5.77
2022-08-27T13:20:53.338Z,5.57
2022-08-27T13:23:24.090Z,5.33
2022-08-27T13:25:59.393Z,6.03
2022-08-27T13:28:29.929Z,5.50
2022-08-27T13:30:58.189Z,5.60
2022-08-27T13:33:29.007Z,5.50
2022-08-27T13:35:58.238Z,6.30
2022-08-27T13:38:28.149Z,5.70
2022-08-27T13:40:58.967Z,6.40
2022-08-27T13:43:36.614Z,5.80
2022-08-27T13:46:08.471Z,6.17
2022-08-27T13:48:37.159Z,6.60
2022-08-27T13:51:06.990Z,6.20
2022-08-27T13:53:52.855Z,5.60
2022-08-27T13:56:26.678Z,7.50
2022-08-27T13:58:56.568Z,7.27
2022-08-27T14:01:30.491Z,6.27
2022-08-27T14:04:03.723Z,5.80
2022-08-27T14:06:37.120Z,5.40
2022-08-27T14:09:13.319Z,6.03
2022-08-27T14:11:41.263Z,6.03
2022-08-27T14:14:10.648Z,6.43
2022-08-27T14:16:39.733Z,6.30
2022-08-27T14:19:10.381Z,6.90
2022-08-27T14:21:40.566Z,6.07
2022-08-27T14:24:08.899Z,6.97
2022-08-27T14:26:37.008Z,6.80
2022-08-27T14:29:11.908Z,7.03
2022-08-27T14:31:41.964Z,6.73
2022-08-27T14:34:09.974Z,6.73
2022-08-27T14:36:39.013Z,7.20
2022-08-27T14:39:07.159Z,6.40
2022-08-27T14:41:35.404Z,6.40
2022-08-27T14:44:03.414Z,5.70
2022-08-27T14:46:35.958Z,6.50
2022-08-27T14:49:13.091Z,5.60
2022-08-27T14:51:42.739Z,6.10
2022-08-27T14:54:10.715Z,5.40
2022-08-27T14:56:38.854Z,6.87
2022-08-27T14:59:06.798Z,6.40
2022-08-27T15:01:38.864Z,6.30
2022-08-27T15:04:07.472Z,6.83
2022-08-27T15:06:36.759Z,6.77
2022-08-27T15:09:05.913Z,6.63
2022-08-27T15:11:36.340Z,6.67
2022-08-27T15:14:06.586Z,6.00
2022-08-27T15:16:36.762Z,5.83
2022-08-27T15:19:07.109Z,6.17
2022-08-27T15:21:38.547Z,6.60
2022-08-27T15:24:08.362Z,6.73
2022-08-27T15:26:36.994Z,6.77
2022-08-27T15:29:06.741Z,6.77
2022-08-27T15:31:35.136Z,6.73
2022-08-27T15:34:03.161Z,6.70
2022-08-27T15:36:31.110Z,6.60
2022-08-27T15:39:00.823Z,6.70
2022-08-27T15:41:29.462Z,6.40
2022-08-27T15:43:58.090Z,6.73
2022-08-27T15:46:26.987Z,6.07
2022-08-27T15:48:55.107Z,11.57
2022-08-27T15:51:27.449Z,6.80
2022-08-27T15:53:55.437Z,8.50
2022-08-27T15:56:25.334Z,5.97
2022-08-27T15:58:53.311Z,6.33
2022-08-27T16:01:25.498Z,7.27
2022-08-27T16:03:53.629Z,7.73
2022-08-27T16:06:21.705Z,6.50
2022-08-27T16:08:49.645Z,6.70
2022-08-27T16:11:17.685Z,7.80
2022-08-27T16:13:47.029Z,7.23
2022-08-27T16:16:15.104Z,6.50
2022-08-27T16:18:43.698Z,7.53
2022-08-27T16:21:11.724Z,6.50
2022-08-27T16:23:39.658Z,7.73
2022-08-27T16:26:07.654Z,7.60
2022-08-27T16:28:35.621Z,6.63
2022-08-27T16:31:05.604Z,6.73
2022-08-27T16:33:40.155Z,7.67
2022-08-27T16:36:08.794Z,7.10
2022-08-27T16:38:37.173Z,7.20
2022-08-27T16:41:06.012Z,7.47
2022-08-27T16:43:34.229Z,7.83
2022-08-27T16:46:04.266Z,6.90
2022-08-27T16:49:04.346Z,7.80
2022-08-27T16:51:34.495Z,7.60
2022-08-27T16:54:03.965Z,7.37
2022-08-27T16:56:36.888Z,8.30
2022-08-27T16:59:05.866Z,7.53
2022-08-27T17:01:35.458Z,8.57
2022-08-27T17:04:18.181Z,7.77
2022-08-27T17:06:51.598Z,8.20
2022-08-27T17:09:20.216Z,8.07
2022-08-27T17:11:51.992Z,7.27
2022-08-27T17:14:20.014Z,8.30
2022-08-27T17:16:50.098Z,7.90
2022-08-27T17:19:18.875Z,7.93
2022-08-27T17:21:47.112Z,8.57
2022-08-27T17:24:15.155Z,9.67
2022-08-27T17:26:43.151Z,8.57
2022-08-27T17:29:11.121Z,8.20
2022-08-27T17:31:40.549Z,8.60
2022-08-27T17:34:15.421Z,9.13
2022-08-27T17:36:44.347Z,9.40
2022-08-27T17:39:12.677Z,8.30
2022-08-27T17:41:42.782Z,8.57
2022-08-27T17:44:22.356Z,9.50
2022-08-27T17:46:50.915Z,9.37
2022-08-27T17:49:20.349Z,9.27
2022-08-27T17:51:49.516Z,9.30
2022-08-27T17:54:27.241Z,8.93
2022-08-27T17:56:55.264Z,8.77
2022-08-27T17:59:23.584Z,9.17
2022-08-27T18:01:51.770Z,11.03
2022-08-27T18:04:21.338Z,10.23
2022-08-27T18:06:49.543Z,9.30
2022-08-27T18:09:17.860Z,11.23
2022-08-27T18:11:46.436Z,10.67
2022-08-27T18:14:18.104Z,9.67
2022-08-27T18:16:46.691Z,10.40
2022-08-27T18:19:14.744Z,10.83
2022-08-27T18:21:46.595Z,11.20
2022-08-27T18:24:15.781Z,11.03
2022-08-27T18:26:44.109Z,9.80
2022-08-27T18:29:12.325Z,11.20
2022-08-27T18:31:40.466Z,9.97
2022-08-27T18:34:08.438Z,10.13
2022-08-27T18:36:36.402Z,10.27
2022-08-27T18:39:05.779Z,10.50
2022-08-27T18:41:33.890Z,9.87
2022-08-27T18:44:02.373Z,10.60
2022-08-27T18:46:30.428Z,10.33
2022-08-27T18:48:58.475Z,10.87
2022-08-27T18:51:26.478Z,9.93
2022-08-27T18:53:59.596Z,9.97
2022-08-27T18:56:28.938Z,10.33
2022-08-27T18:58:56.952Z,10.00
2022-08-27T19:01:27.745Z,8.97
2022-08-27T19:03:58.195Z,10.03
2022-08-27T19:06:26.191Z,10.90
2022-08-27T19:08:54.153Z,10.77
2022-08-27T19:11:22.135Z,10.90
2022-08-27T19:13:51.808Z,10.70
2022-08-27T19:16:21.990Z,11.70
2022-08-27T19:18:50.037Z,11.53
2022-08-27T19:21:18.064Z,11.50
2022-08-27T19:23:46.057Z,10.97
2022-08-27T19:26:18.074Z,11.00
2022-08-27T19:28:46.448Z,11.70
2022-08-27T19:31:16.304Z,12.37
2022-08-27T19:33:44.640Z,11.73
2022-08-27T19:36:15.809Z,11.40
2022-08-27T19:38:44.704Z,11.30
2022-08-27T19:41:13.737Z,10.57
2022-08-27T19:43:46.002Z,10.83
2022-08-27T19:46:18.169Z,13.33
2022-08-27T19:48:46.221Z,12.53
2022-08-27T19:51:14.349Z,12.63
2022-08-27T19:53:42.529Z,10.90
2022-08-27T19:56:13.160Z,12.10
2022-08-27T19:58:41.730Z,11.93
2022-08-27T20:01:10.008Z,11.23
2022-08-27T20:03:39.596Z,10.57
2022-08-27T20:06:07.583Z,10.80
2022-08-27T20:08:35.561Z,11.37
2022-08-27T20:11:03.532Z,10.53
2022-08-27T20:13:33.343Z,11.30
2022-08-27T20:16:02.918Z,9.83
2022-08-27T20:18:31.320Z,11.60
2022-08-27T20:21:05.877Z,11.37
2022-08-27T20:23:34.383Z,10.70
2022-08-27T20:26:02.506Z,12.23
2022-08-27T20:28:39.809Z,11.53
2022-08-27T20:31:08.496Z,12.80
2022-08-27T20:33:36.489Z,11.00
2022-08-27T20:36:07.975Z,11.23
2022-08-27T20:38:36.049Z,11.00
2022-08-27T20:41:04.653Z,11.00
2022-08-27T20:43:33.168Z,12.47
2022-08-27T20:46:01.665Z,12.90
2022-08-27T20:48:29.910Z,12.77
2022-08-27T20:50:57.895Z,11.90
2022-08-27T20:53:27.240Z,12.67
2022-08-27T20:55:56.611Z,11.43
2022-08-27T20:58:42.200Z,13.00
2022-08-27T21:01:10.811Z,12.20
2022-08-27T21:03:38.908Z,14.07
2022-08-27T21:06:07.657Z,13.70
2022-08-27T21:08:38.776Z,14.37
2022-08-27T21:11:10.751Z,13.70
2022-08-27T21:13:51.114Z,14.53
2022-08-27T21:16:24.038Z,12.53
2022-08-27T21:18:53.655Z,12.80
2022-08-27T21:21:21.727Z,12.80
2022-08-27T21:23:51.150Z,12.33
2022-08-27T21:26:20.152Z,13.10
2022-08-27T21:28:48.087Z,12.13
2022-08-27T21:31:23.650Z,12.37
2022-08-27T21:33:51.636Z,13.37
2022-08-27T21:36:19.699Z,12.50
2022-08-27T21:38:47.644Z,12.97
2022-08-27T21:41:17.326Z,13.80
2022-08-27T21:43:45.312Z,12.83
2022-08-27T21:46:13.371Z,13.93
2022-08-27T21:48:41.465Z,13.13
2022-08-27T21:51:10.921Z,13.10
2022-08-27T21:53:39.206Z,13.43
2022-08-27T21:56:07.557Z,13.73
2022-08-27T21:58:36.989Z,15.27
2022-08-27T22:01:05.891Z,13.70
2022-08-27T22:03:35.341Z,12.23
2022-08-27T22:06:06.695Z,13.57
2022-08-27T22:08:35.154Z,13.43
2022-08-27T22:11:03.354Z,13.53
2022-08-27T22:13:31.479Z,14.50
2022-08-27T22:16:00.907Z,14.27
2022-08-27T22:18:28.937Z,12.57
2022-08-27T22:20:58.801Z,14.13
2022-08-27T22:23:27.459Z,13.40
2022-08-27T22:25:55.449Z,12.57
2022-08-27T22:28:23.514Z,15.40
2022-08-27T22:30:51.611Z,13.77
2022-08-27T22:33:21.090Z,13.63
2022-08-27T22:35:49.439Z,14.00
2022-08-27T22:38:17.449Z,14.60
2022-08-27T22:40:45.650Z,14.63
2022-08-27T22:43:14.816Z,13.00
2022-08-27T22:45:42.838Z,13.17
2022-08-27T22:48:11.047Z,13.27
2022-08-27T22:50:40.492Z,12.87
2022-08-27T22:53:08.607Z,13.30
2022-08-27T22:55:36.664Z,13.00
2022-08-27T22:58:04.922Z,13.70
2022-08-27T23:00:35.335Z,14.53
2022-08-27T23:03:05.554Z,13.77
2022-08-27T23:05:40.497Z,13.83
2022-08-27T23:08:14.007Z,13.90
2022-08-27T23:10:43.592Z,13.53
2022-08-27T23:13:12.638Z,14.67
2022-08-27T23:15:41.575Z,15.10
2022-08-27T23:18:10.225Z,14.83
2022-08-27T23:20:38.218Z,15.10
2022-08-27T23:23:07.990Z,16.00
2022-08-27T23:25:54.824Z,14.07
2022-08-27T23:28:23.492Z,14.10
2022-08-27T23:30:51.596Z,14.87
2022-08-27T23:33:21.157Z,15.37
2022-08-27T23:35:51.509Z,15.47
2022-08-27T23:38:20.785Z,16.00
2022-08-27T23:40:50.858Z,15.73
2022-08-27T23:43:19.541Z,14.60
2022-08-27T23:45:49.024Z,14.13
2022-08-27T23:48:17.085Z,14.83
2022-08-27T23:50:45.533Z,14.33
2022-08-27T23:53:14.708Z,14.40
2022-08-27T23:55:42.780Z,14.70
2022-08-27T23:58:12.699Z,15.43
